Terminal Aerodrome Forecast
Issued by NWS Houston/Galveston, TX

Home | Current Version | Previous Version | Text Only | Print | Product List | Glossary On
Versions: 1 2 3 4 5 6 7 8 9 10 11 12 13 14 15 16 17 18 19 20 21 22
000
FTUS44 KHGX 250520
TAFCLL
TAF
KCLL 250520Z 2506/2606 VRB03KT P6SM SCT250 WS020/22030KT
     FM250800 00000KT P6SM FEW020 BKN250
     FM251400 23007KT P6SM SCT050 SCT250
     FM252100 32009KT P6SM SCT050 SCT250
     FM260100 35011KT P6SM VCSH SCT025 BKN050=

USA.gov is the U.S. government's official web portal to all federal, state and local government web resources and services.